Time;durP1;ratioP1;P1;durP2;ratioP2;P2;SDS_P1;SDS_P2;PMS_P1;PMS_P2;Temp;Humidity;BMP_temperature;BMP_pressure;BME280_temperature;BME280_humidity;BME280_pressure;Samples;Min_cycle;Max_cycle;Signal;HPM_P1;HPM_P2
2022/09/25 00:02:51;;;;;;;7.50;6.70;;;13.10;99.90;;;;;;6228948;28;20493;-66
2022/09/25 00:06:03;;;;;;;6.97;6.37;;;12.90;99.90;;;;;;6229269;28;20566;-67
2022/09/25 00:09:07;;;;;;;7.37;6.63;;;13.10;99.90;;;;;;6228900;28;20468;-67
2022/09/25 00:12:12;;;;;;;7.07;6.50;;;13.00;99.90;;;;;;6217434;28;20811;-67
2022/09/25 00:15:15;;;;;;;7.43;6.63;;;13.10;99.90;;;;;;6227843;28;20471;-66
2022/09/25 00:19:48;;;;;;;8.43;7.73;;;13.10;99.90;;;;;;6228293;28;20491;-66
2022/09/25 00:21:44;;;;;;;7.60;6.20;;;13.10;99.90;;;;;;6228352;28;20469;-67
2022/09/25 00:24:47;;;;;;;7.00;6.50;;;13.10;99.90;;;;;;6227090;28;20444;-67
2022/09/25 00:27:53;;;;;;;7.00;6.50;;;13.20;99.90;;;;;;6227315;28;20444;-67
2022/09/25 00:30:56;;;;;;;10.00;7.07;;;13.20;99.90;;;;;;6224351;28;20846;-68
2022/09/25 00:34:01;;;;;;;7.53;6.73;;;13.20;99.90;;;;;;6227012;28;20441;-67
2022/09/25 00:37:06;;;;;;;7.23;6.53;;;13.20;99.90;;;;;;6224173;28;20917;-67
2022/09/25 00:40:10;;;;;;;7.83;6.30;;;13.30;99.90;;;;;;6226594;28;20472;-68
2022/09/25 00:43:14;;;;;;;7.23;6.53;;;13.30;99.90;;;;;;6225135;28;20972;-68
2022/09/25 00:46:22;;;;;;;7.03;6.33;;;13.30;99.90;;;;;;6224605;28;20456;-68
2022/09/25 00:49:26;;;;;;;7.73;7.13;;;13.30;99.90;;;;;;6224504;28;20472;-68
2022/09/25 00:52:31;;;;;;;7.53;6.90;;;13.20;99.90;;;;;;6226286;28;20491;-66
2022/09/25 00:55:37;;;;;;;6.77;6.27;;;13.20;99.90;;;;;;6226898;28;20483;-68
2022/09/25 00:58:41;;;;;;;6.50;5.90;;;13.20;99.90;;;;;;6226699;28;20970;-67
2022/09/25 01:01:44;;;;;;;7.20;6.60;;;13.10;99.90;;;;;;6226825;28;20487;-67
2022/09/25 01:04:48;;;;;;;6.70;6.20;;;13.10;99.90;;;;;;6226883;28;20514;-66
2022/09/25 01:07:56;;;;;;;6.67;6.17;;;13.10;99.90;;;;;;6227070;28;20472;-67
2022/09/25 01:10:59;;;;;;;6.93;6.30;;;13.10;99.90;;;;;;6226000;28;20800;-64
2022/09/25 01:14:05;;;;;;;6.37;5.87;;;13.10;99.90;;;;;;6221713;28;20479;-64
2022/09/25 01:17:20;;;;;;;6.97;6.27;;;13.10;99.90;;;;;;6223901;28;20484;-64
2022/09/25 01:20:40;;;;;;;6.93;6.23;;;13.00;99.90;;;;;;6223813;28;20615;-64
2022/09/25 01:24:25;;;;;;;7.00;6.40;;;13.10;99.90;;;;;;6226098;28;20979;-65
2022/09/25 01:27:51;;;;;;;8.07;6.30;;;13.00;99.90;;;;;;6207150;28;20476;-66
2022/09/25 01:31:01;;;;;;;6.93;6.27;;;12.90;99.90;;;;;;6226556;28;20461;-66
2022/09/25 01:34:13;;;;;;;6.87;6.27;;;12.80;99.90;;;;;;6227823;28;20520;-66
2022/09/25 01:37:22;;;;;;;6.33;5.83;;;12.80;99.90;;;;;;6202409;28;20481;-66
2022/09/25 01:40:32;;;;;;;6.80;6.30;;;12.90;99.90;;;;;;6225025;28;20476;-66
2022/09/25 01:43:38;;;;;;;6.57;6.07;;;13.00;99.90;;;;;;6225957;28;20472;-65
2022/09/25 01:46:46;;;;;;;6.13;5.63;;;13.00;99.90;;;;;;6225052;28;20482;-65
2022/09/25 01:49:53;;;;;;;6.97;6.27;;;13.10;99.90;;;;;;6227606;28;20968;-65
2022/09/25 01:53:02;;;;;;;6.47;5.87;;;13.10;99.90;;;;;;6226460;28;20483;-65
2022/09/25 01:56:10;;;;;;;6.50;5.90;;;13.10;99.90;;;;;;6225591;28;20476;-65
2022/09/25 01:59:18;;;;;;;6.80;6.30;;;13.10;99.90;;;;;;6226208;28;20480;-66
2022/09/25 02:02:27;;;;;;;7.10;6.50;;;13.20;99.90;;;;;;6226032;28;20484;-66
2022/09/25 02:05:33;;;;;;;6.87;6.37;;;13.10;99.90;;;;;;6227676;28;20486;-66
2022/09/25 02:08:42;;;;;;;7.00;6.33;;;13.20;99.90;;;;;;6226665;28;20476;-66
2022/09/25 02:11:51;;;;;;;6.80;6.13;;;13.10;99.90;;;;;;6225897;28;20483;-66
2022/09/25 02:14:56;;;;;;;7.20;6.60;;;13.10;99.90;;;;;;6225328;28;20472;-66
2022/09/25 02:21:33;;;;;;;7.77;7.07;;;13.10;99.90;;;;;;6220987;28;20491;-67
2022/09/25 02:24:45;;;;;;;8.57;7.87;;;13.00;99.90;;;;;;6224608;28;20478;-67
2022/09/25 02:27:49;;;;;;;8.63;7.73;;;12.90;99.90;;;;;;6225094;28;20460;-67
2022/09/25 02:30:54;;;;;;;8.83;8.03;;;12.90;99.90;;;;;;6225198;28;20798;-67
2022/09/25 02:33:59;;;;;;;9.47;8.50;;;12.90;99.90;;;;;;6225228;28;20444;-67
2022/09/25 02:37:02;;;;;;;8.40;7.70;;;12.90;99.90;;;;;;6225933;28;20467;-65
2022/09/25 02:40:06;;;;;;;7.53;6.90;;;12.90;99.90;;;;;;6225471;28;20460;-65
2022/09/25 02:43:21;;;;;;;7.70;7.00;;;12.90;99.90;;;;;;6225448;28;20476;-66
2022/09/25 02:46:33;;;;;;;7.33;6.60;;;13.00;99.90;;;;;;6225436;28;20469;-66
2022/09/25 02:49:47;;;;;;;7.33;6.63;;;13.10;99.90;;;;;;6225264;28;20464;-67
2022/09/25 02:53:04;;;;;;;7.17;6.67;;;13.20;99.90;;;;;;6225122;28;20480;-66
2022/09/25 02:56:13;;;;;;;7.00;6.50;;;13.20;99.90;;;;;;6225146;28;20479;-66
2022/09/25 02:59:21;;;;;;;7.50;6.80;;;13.30;99.90;;;;;;6224925;28;20472;-66
2022/09/25 03:02:26;;;;;;;6.87;6.27;;;13.30;99.90;;;;;;6224933;28;21011;-66
2022/09/25 03:05:31;;;;;;;6.70;6.20;;;13.40;99.90;;;;;;6224958;28;20487;-66
2022/09/25 03:08:38;;;;;;;8.00;6.63;;;13.40;99.90;;;;;;6224686;28;20479;-66
2022/09/25 03:11:42;;;;;;;6.50;6.00;;;13.40;99.90;;;;;;6224878;28;20806;-66
2022/09/25 03:14:45;;;;;;;6.70;6.13;;;13.40;99.90;;;;;;6224876;28;20810;-66
2022/09/25 03:17:49;;;;;;;7.57;6.97;;;13.40;99.90;;;;;;6224629;28;20480;-66
2022/09/25 03:20:54;;;;;;;7.83;7.13;;;13.30;99.90;;;;;;6224210;28;20968;-66
2022/09/25 03:23:57;;;;;;;6.90;6.30;;;13.40;99.90;;;;;;6215789;28;20487;-66
2022/09/25 03:27:00;;;;;;;7.77;7.07;;;13.30;99.90;;;;;;6224537;28;20898;-66
2022/09/25 03:30:04;;;;;;;7.20;6.50;;;13.20;99.90;;;;;;6224312;28;20994;-66
2022/09/25 03:33:09;;;;;;;6.93;6.43;;;13.20;99.90;;;;;;6224339;28;20494;-66
2022/09/25 03:36:17;;;;;;;7.07;6.50;;;13.20;99.90;;;;;;6228584;28;20472;-66
2022/09/25 03:39:20;;;;;;;8.07;7.10;;;13.20;99.90;;;;;;6228731;28;20510;-66
2022/09/25 03:42:26;;;;;;;7.73;6.73;;;13.30;99.90;;;;;;6229258;28;20476;-66
2022/09/25 03:45:30;;;;;;;7.27;6.23;;;13.30;99.90;;;;;;6228826;28;20472;-66
2022/09/25 03:48:33;;;;;;;7.30;6.70;;;13.30;99.90;;;;;;6229072;28;20482;-66
2022/09/25 03:51:37;;;;;;;8.30;7.50;;;13.40;99.90;;;;;;6228488;28;20507;-66
2022/09/25 03:54:41;;;;;;;8.10;7.43;;;13.40;99.90;;;;;;6228886;28;20487;-66
2022/09/25 03:57:44;;;;;;;7.13;6.47;;;13.40;99.90;;;;;;6228844;28;20460;-67
2022/09/25 04:00:48;;;;;;;6.93;6.43;;;13.40;99.90;;;;;;6228460;28;20825;-67
2022/09/25 04:03:51;;;;;;;7.33;6.73;;;13.30;99.90;;;;;;6228736;28;20448;-67
2022/09/25 04:06:56;;;;;;;7.33;6.80;;;13.40;99.90;;;;;;6228276;28;20448;-67
2022/09/25 04:09:59;;;;;;;7.00;6.50;;;13.40;99.90;;;;;;6228264;28;20455;-67
2022/09/25 04:13:02;;;;;;;8.13;7.33;;;13.40;99.90;;;;;;6228292;28;20475;-67
2022/09/25 04:16:06;;;;;;;7.20;6.50;;;13.40;99.90;;;;;;6228402;28;20956;-67
2022/09/25 04:19:10;;;;;;;7.00;6.40;;;13.40;99.90;;;;;;6228016;28;20801;-67
2022/09/25 04:22:15;;;;;;;8.00;7.30;;;13.40;99.90;;;;;;6228397;28;20468;-67
2022/09/25 04:25:22;;;;;;;6.73;6.23;;;13.50;99.90;;;;;;6223596;28;20491;-67
2022/09/25 04:28:28;;;;;;;9.00;7.63;;;13.40;99.90;;;;;;6228256;28;20488;-67
2022/09/25 04:31:32;;;;;;;7.67;7.07;;;13.40;99.90;;;;;;6227516;28;20491;-67
2022/09/25 04:34:34;;;;;;;8.63;7.87;;;13.40;99.90;;;;;;6227922;28;20555;-67
2022/09/25 04:37:39;;;;;;;9.53;8.40;;;13.30;99.90;;;;;;6227630;28;20968;-67
2022/09/25 04:40:42;;;;;;;8.20;7.50;;;13.30;99.90;;;;;;6227168;28;20513;-67
2022/09/25 04:43:45;;;;;;;9.20;8.40;;;13.30;99.90;;;;;;6227267;28;20952;-67
2022/09/25 04:46:48;;;;;;;7.93;7.20;;;13.40;99.90;;;;;;6226729;28;20483;-67
2022/09/25 04:49:52;;;;;;;8.97;8.17;;;13.40;99.90;;;;;;6227099;28;20471;-67
2022/09/25 04:52:57;;;;;;;8.57;7.60;;;13.40;99.90;;;;;;6227367;28;20587;-67
2022/09/25 04:56:02;;;;;;;8.37;7.67;;;13.50;99.90;;;;;;6226815;28;20775;-66
2022/09/25 04:59:05;;;;;;;8.43;7.80;;;13.40;99.90;;;;;;6227298;28;20495;-67
2022/09/25 05:02:08;;;;;;;9.03;8.13;;;13.40;99.90;;;;;;6227052;28;20487;-67
2022/09/25 05:05:12;;;;;;;9.00;8.20;;;13.40;99.90;;;;;;6227330;28;20488;-67
2022/09/25 05:08:16;;;;;;;8.90;8.20;;;13.50;99.90;;;;;;6227014;28;20486;-67
2022/09/25 05:11:20;;;;;;;8.30;7.53;;;13.50;99.90;;;;;;6227596;28;20480;-66
2022/09/25 05:14:23;;;;;;;8.70;8.00;;;13.40;99.90;;;;;;6231152;28;20478;-67
2022/09/25 05:17:26;;;;;;;10.43;9.53;;;13.50;99.90;;;;;;6229907;28;20986;-67
2022/09/25 05:20:29;;;;;;;7.93;7.23;;;13.50;99.90;;;;;;6228341;28;20472;-66
2022/09/25 05:23:34;;;;;;;8.63;7.93;;;13.50;99.90;;;;;;6228058;28;20773;-66
2022/09/25 05:26:37;;;;;;;9.47;8.50;;;13.50;99.90;;;;;;6228233;28;20479;-67
2022/09/25 05:29:40;;;;;;;9.50;8.57;;;13.50;99.90;;;;;;6228474;28;20856;-66
2022/09/25 05:32:48;;;;;;;8.90;8.10;;;13.50;99.90;;;;;;6227832;28;20791;-66
2022/09/25 05:35:51;;;;;;;10.20;9.30;;;13.50;99.90;;;;;;6227312;28;20480;-66
2022/09/25 05:38:56;;;;;;;10.33;9.43;;;13.50;99.90;;;;;;6227474;28;20507;-66
2022/09/25 05:42:01;;;;;;;9.60;8.70;;;13.40;99.90;;;;;;6227199;28;20534;-66
2022/09/25 05:45:05;;;;;;;9.93;9.03;;;13.40;99.90;;;;;;6227079;28;20479;-67
2022/09/25 05:48:09;;;;;;;10.47;9.47;;;13.50;99.90;;;;;;6227076;28;20482;-67
2022/09/25 05:51:12;;;;;;;9.67;8.87;;;13.50;99.90;;;;;;6226976;28;20476;-67
2022/09/25 05:54:17;;;;;;;9.07;8.27;;;13.50;99.90;;;;;;6226538;28;20472;-67
2022/09/25 05:57:21;;;;;;;8.80;8.00;;;13.50;99.90;;;;;;6226461;28;20494;-67
2022/09/25 06:00:24;;;;;;;9.27;8.47;;;13.50;99.90;;;;;;6226319;28;20480;-67
2022/09/25 06:03:28;;;;;;;9.70;8.90;;;13.60;99.90;;;;;;6225756;28;20833;-67
2022/09/25 06:06:31;;;;;;;9.23;8.43;;;13.70;99.90;;;;;;6225808;28;20515;-67
2022/09/25 06:09:36;;;;;;;9.17;8.40;;;13.70;99.90;;;;;;6225990;28;20471;-67
2022/09/25 06:12:39;;;;;;;9.63;8.87;;;13.70;99.90;;;;;;6225956;28;20983;-67
2022/09/25 06:15:42;;;;;;;9.37;8.43;;;13.70;99.90;;;;;;6225210;28;20788;-66
2022/09/25 06:18:46;;;;;;;10.50;8.83;;;13.80;99.90;;;;;;6225652;28;20472;-67
2022/09/25 06:21:50;;;;;;;8.97;8.20;;;13.80;99.90;;;;;;6225497;28;20920;-67
2022/09/25 06:24:54;;;;;;;10.10;9.23;;;13.90;99.90;;;;;;6225315;28;20463;-67
2022/09/25 06:27:59;;;;;;;13.20;10.03;;;13.90;99.90;;;;;;6225513;28;20534;-67
2022/09/25 06:31:03;;;;;;;10.07;9.17;;;14.00;99.90;;;;;;6221449;28;20622;-67
2022/09/25 06:34:08;;;;;;;10.17;9.23;;;14.00;99.90;;;;;;6225531;28;20492;-67
2022/09/25 06:37:11;;;;;;;9.17;8.37;;;14.00;99.90;;;;;;6225928;28;20471;-66
2022/09/25 06:40:16;;;;;;;10.20;9.40;;;14.00;99.90;;;;;;6225314;28;20472;-66
2022/09/25 06:43:19;;;;;;;9.57;8.73;;;14.00;99.90;;;;;;6224867;28;20480;-66
2022/09/25 06:46:22;;;;;;;10.30;9.40;;;14.00;99.90;;;;;;6225428;28;20460;-66
2022/09/25 06:49:25;;;;;;;11.77;10.77;;;14.00;99.90;;;;;;6225100;28;20471;-66
2022/09/25 06:52:29;;;;;;;13.23;10.43;;;14.00;99.90;;;;;;6225061;28;20484;-66
2022/09/25 06:55:33;;;;;;;11.10;10.17;;;13.90;99.90;;;;;;6224964;28;20486;-66
2022/09/25 06:58:37;;;;;;;10.57;9.60;;;13.90;99.90;;;;;;6225166;28;20464;-66
2022/09/25 07:01:41;;;;;;;12.17;11.13;;;13.90;99.90;;;;;;6225078;28;20480;-66
2022/09/25 07:04:43;;;;;;;11.33;10.30;;;13.90;99.90;;;;;;6224880;28;20872;-66
2022/09/25 07:07:47;;;;;;;10.93;10.13;;;13.90;99.90;;;;;;6224709;28;20480;-67
2022/09/25 07:10:53;;;;;;;11.17;10.17;;;13.90;99.90;;;;;;6228986;28;20476;-67
2022/09/25 07:13:56;;;;;;;10.87;9.97;;;13.90;99.90;;;;;;6230035;28;20468;-67
2022/09/25 07:16:59;;;;;;;11.67;10.67;;;13.90;99.90;;;;;;6230001;28;20487;-67
2022/09/25 07:20:02;;;;;;;11.13;10.10;;;14.00;99.90;;;;;;6228813;28;20484;-66
2022/09/25 07:23:06;;;;;;;11.70;10.63;;;14.00;99.90;;;;;;6228980;28;20975;-67
2022/09/25 07:26:12;;;;;;;12.07;11.00;;;14.00;99.90;;;;;;6229517;28;20468;-67
2022/09/25 07:29:16;;;;;;;11.20;9.80;;;14.10;99.90;;;;;;6229412;28;20483;-67
2022/09/25 07:32:19;;;;;;;12.77;11.60;;;14.10;99.90;;;;;;6229650;28;20924;-67
2022/09/25 07:35:22;;;;;;;12.93;11.83;;;14.10;99.90;;;;;;6228939;28;20816;-67
2022/09/25 07:38:25;;;;;;;12.80;11.80;;;14.10;99.90;;;;;;6229596;28;20479;-67
2022/09/25 07:41:30;;;;;;;12.50;11.50;;;14.00;99.90;;;;;;6229687;28;20994;-67
2022/09/25 07:44:33;;;;;;;13.10;11.90;;;14.00;99.90;;;;;;6229441;28;20482;-67
2022/09/25 07:47:40;;;;;;;12.73;11.73;;;14.00;99.90;;;;;;6228949;28;20480;-67
2022/09/25 07:50:44;;;;;;;13.00;11.70;;;14.10;99.90;;;;;;6227673;28;20472;-66
2022/09/25 07:53:47;;;;;;;12.00;10.90;;;14.10;99.90;;;;;;6227324;28;21332;-67
2022/09/25 07:56:51;;;;;;;10.70;9.80;;;14.10;99.90;;;;;;6227925;28;20471;-67
2022/09/25 07:59:55;;;;;;;10.83;9.93;;;14.10;99.90;;;;;;6227505;28;20992;-66
2022/09/25 08:02:58;;;;;;;10.17;9.20;;;14.10;99.90;;;;;;6228060;28;20483;-67
2022/09/25 08:06:04;;;;;;;9.07;8.37;;;14.10;99.90;;;;;;6226655;28;20484;-67
2022/09/25 08:09:07;;;;;;;9.70;8.90;;;14.10;99.90;;;;;;6227875;28;20472;-67
2022/09/25 08:12:14;;;;;;;10.67;9.57;;;14.10;99.90;;;;;;6228097;28;20538;-67
2022/09/25 08:15:17;;;;;;;10.73;9.73;;;14.10;99.90;;;;;;6228128;28;20781;-67
2022/09/25 08:18:21;;;;;;;10.63;9.60;;;14.10;99.90;;;;;;6228407;28;20479;-67
2022/09/25 08:21:24;;;;;;;9.40;8.60;;;14.20;99.90;;;;;;6227515;28;20492;-67
2022/09/25 08:24:27;;;;;;;10.67;9.67;;;14.30;99.90;;;;;;6228609;28;20955;-68
2022/09/25 08:27:32;;;;;;;10.70;9.60;;;14.40;99.90;;;;;;6228341;28;20987;-66
2022/09/25 08:30:37;;;;;;;12.37;11.20;;;14.40;99.90;;;;;;6227591;28;20799;-66
2022/09/25 08:33:44;;;;;;;11.70;10.60;;;14.50;99.90;;;;;;6228381;28;20610;-67
2022/09/25 08:36:48;;;;;;;10.70;9.80;;;14.50;99.90;;;;;;6227561;28;20904;-66
2022/09/25 08:39:52;;;;;;;10.80;9.80;;;14.50;99.90;;;;;;6218788;28;21021;-66
2022/09/25 08:42:57;;;;;;;8.67;7.87;;;14.60;99.90;;;;;;6227465;28;20475;-66
2022/09/25 08:49:28;;;;;;;9.10;8.33;;;14.70;99.90;;;;;;6227872;28;20472;-66
2022/09/25 08:52:32;;;;;;;9.37;8.67;;;14.70;99.90;;;;;;6226663;28;20489;-65
2022/09/25 08:59:06;;;;;;;10.80;9.80;;;14.70;99.90;;;;;;6224035;28;20924;-66
2022/09/25 09:02:13;;;;;;;10.90;10.00;;;14.70;99.90;;;;;;6226090;28;20491;-66
2022/09/25 09:05:22;;;;;;;9.03;8.23;;;14.70;99.90;;;;;;6226363;28;20484;-65
2022/09/25 09:08:29;;;;;;;10.70;9.83;;;14.70;99.90;;;;;;6224513;28;20558;-65
2022/09/25 09:11:38;;;;;;;9.70;8.87;;;14.70;99.90;;;;;;6225604;28;20473;-66
2022/09/25 09:14:46;;;;;;;11.10;10.10;;;14.80;99.90;;;;;;6224631;28;20765;-66
2022/09/25 09:17:49;;;;;;;10.20;9.20;;;14.80;99.90;;;;;;6224428;28;20811;-66
2022/09/25 09:20:55;;;;;;;10.03;9.23;;;14.80;99.90;;;;;;6225984;28;20628;-66
2022/09/25 09:24:06;;;;;;;10.77;9.87;;;14.80;99.90;;;;;;6225933;28;20468;-65
2022/09/25 09:27:38;;;;;;;12.43;11.13;;;14.80;99.90;;;;;;6224307;28;20472;-66
2022/09/25 09:30:49;;;;;;;14.93;10.87;;;14.80;99.90;;;;;;6226642;28;20472;-66
2022/09/25 09:33:59;;;;;;;10.20;9.40;;;14.90;99.90;;;;;;6224828;28;20904;-66
2022/09/25 09:37:14;;;;;;;10.77;9.80;;;14.90;99.90;;;;;;6225838;28;20734;-66
2022/09/25 09:40:26;;;;;;;10.40;9.47;;;14.90;99.90;;;;;;6226721;28;20464;-66
2022/09/25 09:43:49;;;;;;;11.07;10.07;;;14.80;99.90;;;;;;6217775;28;20479;-66
2022/09/25 09:47:07;;;;;;;10.67;9.80;;;14.80;99.90;;;;;;6226061;28;20482;-66
2022/09/25 09:50:24;;;;;;;9.53;8.80;;;14.90;99.90;;;;;;6225568;28;20964;-66
2022/09/25 09:53:32;;;;;;;11.70;10.50;;;15.00;99.90;;;;;;6223294;28;20983;-66
2022/09/25 09:56:37;;;;;;;10.63;9.73;;;15.10;99.90;;;;;;6226293;28;20555;-66
2022/09/25 09:59:46;;;;;;;11.07;10.07;;;15.30;99.90;;;;;;6227977;28;20479;-69
2022/09/25 10:02:55;;;;;;;12.17;11.07;;;15.40;99.90;;;;;;6230407;28;20473;-71
2022/09/25 10:06:01;;;;;;;11.00;10.07;;;15.70;99.90;;;;;;6226549;28;20494;-69
2022/09/25 10:09:05;;;;;;;11.60;10.60;;;15.90;99.90;;;;;;6225586;28;20456;-69
2022/09/25 10:12:15;;;;;;;10.60;9.80;;;16.10;99.90;;;;;;6225525;28;20491;-69
2022/09/25 10:15:27;;;;;;;12.70;11.50;;;16.30;99.90;;;;;;6225906;28;20472;-69
2022/09/25 10:18:39;;;;;;;12.10;10.93;;;16.50;99.90;;;;;;6225851;28;20472;-68
2022/09/25 10:21:46;;;;;;;9.37;8.67;;;16.70;99.90;;;;;;6225234;28;20491;-69
2022/09/25 10:24:52;;;;;;;9.77;8.97;;;16.80;99.90;;;;;;6225353;28;20448;-68
2022/09/25 10:27:55;;;;;;;9.23;8.53;;;17.00;99.90;;;;;;6225029;28;20444;-67
2022/09/25 10:31:00;;;;;;;10.03;8.90;;;17.10;99.90;;;;;;6225356;28;20455;-67
2022/09/25 10:34:06;;;;;;;9.63;8.73;;;17.20;99.90;;;;;;6225533;28;20475;-67
2022/09/25 10:37:19;;;;;;;9.10;8.40;;;17.30;99.90;;;;;;6225093;28;20464;-67
2022/09/25 10:40:32;;;;;;;10.70;9.80;;;17.60;99.90;;;;;;6224912;28;20471;-67
2022/09/25 10:43:35;;;;;;;8.23;7.63;;;17.80;99.90;;;;;;6224597;28;20487;-68
2022/09/25 10:50:12;;;;;;;9.40;8.57;;;17.80;99.90;;;;;;6210500;28;20476;-68
2022/09/25 10:53:28;;;;;;;9.23;8.43;;;17.80;99.90;;;;;;6227194;28;20573;-67
2022/09/25 10:56:37;;;;;;;9.93;9.13;;;17.80;99.90;;;;;;6227986;28;20487;-67
2022/09/25 10:59:47;;;;;;;10.80;9.90;;;17.70;99.90;;;;;;6230802;28;20476;-67
2022/09/25 11:02:53;;;;;;;11.17;10.17;;;17.60;99.90;;;;;;6230104;28;20482;-67
2022/09/25 11:06:02;;;;;;;10.57;9.87;;;17.40;99.90;;;;;;6228302;28;20542;-67
2022/09/25 11:09:12;;;;;;;8.17;7.50;;;17.20;99.90;;;;;;6223646;28;20460;-67
2022/09/25 11:12:22;;;;;;;8.07;7.37;;;17.20;99.90;;;;;;6228604;28;20464;-68
2022/09/25 11:15:27;;;;;;;7.63;6.23;;;17.30;99.90;;;;;;6226138;28;20473;-67
2022/09/25 11:18:40;;;;;;;8.33;7.63;;;17.40;99.90;;;;;;6229134;28;20484;-67
2022/09/25 11:21:58;;;;;;;7.83;7.13;;;17.80;99.90;;;;;;6229229;28;20472;-68
2022/09/25 11:25:12;;;;;;;8.77;7.97;;;18.00;99.90;;;;;;6230102;28;20221;-67
2022/09/25 11:28:20;;;;;;;8.40;7.80;;;18.20;99.90;;;;;;6229797;28;20499;-67
2022/09/25 11:31:30;;;;;;;10.80;9.90;;;18.30;99.90;;;;;;6230346;28;20236;-67
2022/09/25 11:34:51;;;;;;;9.17;8.47;;;18.60;99.90;;;;;;6229462;28;20229;-68
2022/09/25 11:38:05;;;;;;;8.57;7.87;;;19.00;99.90;;;;;;6228659;28;20233;-67
2022/09/25 11:41:21;;;;;;;8.30;7.63;;;19.00;99.90;;;;;;6228930;28;20234;-67
2022/09/25 11:44:31;;;;;;;7.33;6.73;;;18.70;99.90;;;;;;6229296;28;20244;-68
2022/09/25 11:47:43;;;;;;;7.20;6.70;;;18.30;99.90;;;;;;6228765;28;20685;-68
2022/09/25 11:50:55;;;;;;;6.83;6.33;;;18.00;99.90;;;;;;6224004;28;20448;-68
2022/09/25 11:54:22;;;;;;;7.20;6.50;;;17.60;99.90;;;;;;6227749;28;20225;-66
2022/09/25 11:57:52;;;;;;;6.93;6.43;;;17.40;99.90;;;;;;6228361;28;20276;-67
2022/09/25 12:01:02;;;;;;;7.47;6.97;;;17.20;99.90;;;;;;6223591;28;20465;-67
2022/09/25 12:04:46;;;;;;;7.60;7.00;;;17.10;99.90;;;;;;6227821;28;20744;-67
2022/09/25 12:08:14;;;;;;;8.93;8.23;;;17.00;99.90;;;;;;6225343;28;20495;-67
2022/09/25 12:11:27;;;;;;;9.30;8.60;;;16.90;99.90;;;;;;6227710;28;20956;-67
2022/09/25 12:14:39;;;;;;;7.70;7.10;;;17.00;99.90;;;;;;6227731;28;20483;-66
2022/09/25 12:17:56;;;;;;;8.17;7.57;;;17.10;99.90;;;;;;6227909;28;20468;-68
2022/09/25 12:21:05;;;;;;;8.30;7.50;;;17.20;99.90;;;;;;6227564;28;20835;-66
2022/09/25 12:24:18;;;;;;;8.77;8.17;;;17.40;99.90;;;;;;6227853;28;20472;-68
2022/09/25 12:27:36;;;;;;;7.90;7.20;;;17.60;99.90;;;;;;6227871;28;20472;-69
2022/09/25 12:30:49;;;;;;;8.80;7.73;;;17.90;99.90;;;;;;6227592;28;20975;-69
2022/09/25 12:33:57;;;;;;;8.17;7.47;;;18.20;99.90;;;;;;6227843;28;20237;-67
2022/09/25 12:37:12;;;;;;;8.90;8.20;;;18.30;99.90;;;;;;6228092;28;20431;-67
2022/09/25 12:40:22;;;;;;;8.77;8.17;;;18.30;99.90;;;;;;6227981;28;20476;-67
2022/09/25 12:43:34;;;;;;;16.00;14.50;;;18.30;99.90;;;;;;6226080;28;20472;-68
2022/09/25 12:46:43;;;;;;;9.20;8.50;;;18.30;99.90;;;;;;6226372;28;20468;-66
2022/09/25 12:49:50;;;;;;;18.07;16.30;;;18.40;99.90;;;;;;6227574;28;20236;-69
2022/09/25 12:52:57;;;;;;;11.77;10.67;;;18.60;99.90;;;;;;6227394;28;20260;-70
2022/09/25 12:56:08;;;;;;;15.87;14.37;;;18.70;99.90;;;;;;6218458;28;20237;-69
2022/09/25 12:59:17;;;;;;;26.63;23.83;;;18.70;99.90;;;;;;6227751;28;20233;-69
2022/09/25 13:02:27;;;;;;;11.27;10.37;;;18.70;99.90;;;;;;6226654;28;20237;-66
2022/09/25 13:05:35;;;;;;;22.20;20.13;;;18.80;99.90;;;;;;6227446;28;20731;-69
2022/09/25 13:08:46;;;;;;;11.83;10.93;;;18.60;99.90;;;;;;6226423;28;20673;-68
2022/09/25 13:11:56;;;;;;;10.60;9.70;;;18.70;99.90;;;;;;6226935;28;20585;-68
2022/09/25 13:15:05;;;;;;;9.60;8.57;;;18.90;99.90;;;;;;6227027;28;20568;-69
2022/09/25 13:18:21;;;;;;;15.57;14.17;;;19.00;99.90;;;;;;6227792;28;20241;-68
2022/09/25 13:21:29;;;;;;;9.87;9.07;;;19.10;99.90;;;;;;6229422;28;20592;-68
2022/09/25 13:24:39;;;;;;;10.90;9.90;;;19.00;99.90;;;;;;6228015;28;20654;-70
2022/09/25 13:27:45;;;;;;;11.80;10.80;;;19.00;99.90;;;;;;6226909;28;20229;-69
2022/09/25 13:31:08;;;;;;;9.10;8.43;;;18.90;99.90;;;;;;6226858;28;20228;-69
2022/09/25 13:34:14;;;;;;;11.00;10.10;;;19.10;99.90;;;;;;6226474;28;20675;-70
2022/09/25 13:37:17;;;;;;;7.40;6.80;;;19.10;99.90;;;;;;6226465;28;20229;-69
2022/09/25 13:40:41;;;;;;;8.33;7.60;;;19.20;99.90;;;;;;6226415;28;20235;-69
2022/09/25 13:43:48;;;;;;;6.63;6.13;;;19.20;99.90;;;;;;6213926;28;20225;-68
2022/09/25 13:47:27;;;;;;;6.83;6.33;;;19.10;99.90;;;;;;6226241;28;20232;-69
2022/09/25 13:50:36;;;;;;;6.63;6.13;;;19.10;99.90;;;;;;6217363;28;20233;-68
2022/09/25 13:53:55;;;;;;;6.63;6.13;;;18.90;99.90;;;;;;6224659;28;20225;-67
2022/09/25 13:56:58;;;;;;;6.90;6.40;;;18.70;99.90;;;;;;6224399;28;20689;-66
2022/09/25 14:00:04;;;;;;;7.73;7.13;;;18.10;99.90;;;;;;6215165;28;20229;-66
2022/09/25 14:03:30;;;;;;;6.63;6.13;;;18.10;99.90;;;;;;6223674;28;20229;-66
2022/09/25 14:06:35;;;;;;;6.37;5.77;;;18.20;99.90;;;;;;6222988;28;20677;-66
2022/09/25 14:09:46;;;;;;;6.03;5.63;;;18.20;99.90;;;;;;6225157;28;20240;-68
2022/09/25 14:12:50;;;;;;;5.67;5.17;;;18.10;99.90;;;;;;6223201;28;20654;-68
2022/09/25 14:15:57;;;;;;;7.17;6.60;;;18.10;99.90;;;;;;6225622;28;20231;-70
2022/09/25 14:19:03;;;;;;;6.97;6.27;;;18.10;99.90;;;;;;6225412;28;20259;-68
2022/09/25 14:22:15;;;;;;;6.80;6.10;;;17.90;99.90;;;;;;6226381;28;20571;-67
2022/09/25 14:25:27;;;;;;;4.73;4.33;;;17.80;99.90;;;;;;6225822;28;20510;-68
2022/09/25 14:28:34;;;;;;;4.83;4.53;;;17.90;99.90;;;;;;6224016;28;20478;-68
2022/09/25 14:31:47;;;;;;;4.40;4.10;;;18.00;99.90;;;;;;6224463;28;20229;-69
2022/09/25 14:35:17;;;;;;;5.00;4.50;;;18.20;99.90;;;;;;6222221;28;20561;-68
2022/09/25 14:38:39;;;;;;;4.43;4.13;;;18.30;99.90;;;;;;6218812;28;20232;-68
2022/09/25 14:42:01;;;;;;;3.67;3.37;;;18.30;99.90;;;;;;6219257;28;20240;-68
2022/09/25 14:45:40;;;;;;;3.70;3.50;;;18.10;99.90;;;;;;6223151;28;20288;-68
2022/09/25 14:48:47;;;;;;;4.60;4.20;;;18.10;99.90;;;;;;6220219;28;20233;-68
2022/09/25 14:51:54;;;;;;;3.60;3.40;;;18.20;99.90;;;;;;6223714;28;20233;-68
2022/09/25 14:54:59;;;;;;;2.90;2.70;;;18.20;99.90;;;;;;6221939;28;20250;-68
2022/09/25 14:58:03;;;;;;;3.27;3.00;;;18.10;99.90;;;;;;6225656;28;20197;-68
2022/09/25 15:01:16;;;;;;;3.20;3.00;;;17.90;99.90;;;;;;6220010;28;20238;-68
2022/09/25 15:04:27;;;;;;;3.27;2.97;;;17.80;99.90;;;;;;6222614;28;20247;-69
2022/09/25 15:07:32;;;;;;;3.80;3.50;;;17.70;99.90;;;;;;6222567;28;20468;-72
2022/09/25 15:10:37;;;;;;;2.70;2.60;;;17.70;99.90;;;;;;6222218;28;20475;-70
2022/09/25 15:13:41;;;;;;;2.90;2.67;;;17.70;99.90;;;;;;6224780;28;20472;-71
2022/09/25 15:20:07;;;;;;;2.77;2.57;;;17.50;99.90;;;;;;6224210;28;20476;-71
2022/09/25 15:23:18;;;;;;;2.50;2.23;;;17.40;99.90;;;;;;6200395;28;20510;-69
2022/09/25 15:26:22;;;;;;;3.27;2.97;;;17.20;99.90;;;;;;6200736;28;20477;-71
2022/09/25 15:29:25;;;;;;;3.80;3.30;;;17.10;99.90;;;;;;6200490;28;20472;-69
2022/09/25 15:32:37;;;;;;;4.53;4.20;;;17.00;99.90;;;;;;6204879;28;20492;-69
2022/09/25 15:35:40;;;;;;;4.40;3.43;;;17.00;99.90;;;;;;6206084;28;20840;-70
2022/09/25 15:38:51;;;;;;;4.00;3.70;;;16.90;99.90;;;;;;6229083;28;20472;-70
2022/09/25 15:41:54;;;;;;;4.67;3.80;;;16.80;99.90;;;;;;6228788;28;20480;-70
2022/09/25 15:45:02;;;;;;;5.53;3.77;;;16.80;99.90;;;;;;6229478;28;20468;-69
2022/09/25 15:48:23;;;;;;;4.53;4.17;;;16.70;99.90;;;;;;6229332;28;20959;-69
2022/09/25 15:51:31;;;;;;;5.27;4.83;;;16.30;99.90;;;;;;6231392;28;20587;-68
2022/09/25 15:54:37;;;;;;;5.10;4.70;;;16.30;99.90;;;;;;6228650;28;20472;-69
2022/09/25 15:57:41;;;;;;;4.40;4.00;;;16.20;99.90;;;;;;6228650;28;20484;-68
2022/09/25 16:07:41;;;;;;;5.23;4.83;;;15.90;99.90;;;;;;6224084;28;21004;-66
2022/09/25 16:10:46;;;;;;;6.33;5.50;;;15.80;99.90;;;;;;6228401;28;20566;-67
2022/09/25 16:14:11;;;;;;;5.83;5.43;;;15.70;99.90;;;;;;6228035;28;20472;-67
2022/09/25 16:17:24;;;;;;;6.00;5.60;;;15.80;99.90;;;;;;6228837;28;20476;-67
2022/09/25 16:20:30;;;;;;;5.70;5.30;;;15.60;99.90;;;;;;6228334;28;20487;-67
2022/09/25 16:23:33;;;;;;;6.67;6.17;;;15.60;99.90;;;;;;6228036;28;20492;-67
2022/09/25 16:26:40;;;;;;;7.23;6.40;;;15.50;99.90;;;;;;6228376;28;20983;-67
2022/09/25 16:29:44;;;;;;;6.40;5.80;;;15.40;99.90;;;;;;6228721;28;20484;-67
2022/09/25 16:32:49;;;;;;;6.80;6.30;;;15.50;99.90;;;;;;6227763;28;20840;-67
2022/09/25 16:35:53;;;;;;;6.17;5.73;;;15.40;99.90;;;;;;6229348;28;20472;-67
2022/09/25 16:39:23;;;;;;;6.50;6.00;;;15.40;99.90;;;;;;6235932;28;20940;-66